Time;durP1;ratioP1;P1;durP2;ratioP2;P2;SDS_P1;SDS_P2;PMS_P1;PMS_P2;Temp;Humidity;BMP_temperature;BMP_pressure;BME280_temperature;BME280_humidity;BME280_pressure;Samples;Min_cycle;Max_cycle;Signal;HPM_P1;HPM_P2
2021/12/17 00:05:20;;;;;;;20.52;11.95;;;;;;;;;;4926822;29;20043;-72
2021/12/17 00:07:57;;;;;;;21.05;11.70;;;;;;;;;;4922578;29;20039;-71
2021/12/17 00:10:44;;;;;;;20.13;11.90;;;;;;;;;;4909800;29;20055;-72
2021/12/17 00:13:30;;;;;;;18.38;10.73;;;;;;;;;;4917667;28;20493;-68
2021/12/17 00:16:20;;;;;;;15.40;10.38;;;;;;;;;;4961983;28;20027;-67
2021/12/17 00:19:21;;;;;;;19.77;11.07;;;;;;;;;;4910997;29;20036;-66
2021/12/17 00:49:49;;;;;;;20.60;13.25;;;;;;;;;;4849512;29;20141;-69
2021/12/17 00:52:36;;;;;;;21.50;12.32;;;;;;;;;;4882946;29;20047;-69
2021/12/17 00:55:21;;;;;;;21.33;13.52;;;;;;;;;;4918646;28;20060;-70
2021/12/17 00:58:06;;;;;;;20.27;12.45;;;;;;;;;;4877954;29;20057;-70
2021/12/17 01:00:52;;;;;;;20.73;13.05;;;;;;;;;;4833320;29;20136;-69
2021/12/17 01:03:37;;;;;;;25.48;14.30;;;;;;;;;;4898483;29;20038;-70
2021/12/17 01:06:22;;;;;;;20.70;13.02;;;;;;;;;;4932822;28;20039;-70
2021/12/17 01:09:08;;;;;;;17.65;12.90;;;;;;;;;;4889530;29;20075;-65
2021/12/17 01:11:55;;;;;;;22.13;14.13;;;;;;;;;;4915126;28;20047;-67
2021/12/17 01:14:43;;;;;;;22.48;13.85;;;;;;;;;;4913003;29;20059;-66
2021/12/17 01:17:31;;;;;;;20.00;13.10;;;;;;;;;;4897933;29;20731;-65
2021/12/17 01:35:21;;;;;;;20.02;13.18;;;;;;;;;;4919917;29;20036;-68
2021/12/17 01:44:10;;;;;;;20.95;13.90;;;;;;;;;;4921168;29;20116;-70
2021/12/17 01:46:55;;;;;;;23.65;14.05;;;;;;;;;;4973015;28;20100;-68
2021/12/17 01:56:49;;;;;;;22.00;14.27;;;;;;;;;;4946748;28;20062;-69
2021/12/17 02:01:51;;;;;;;19.55;13.77;;;;;;;;;;4914381;29;20044;-68
2021/12/17 02:04:37;;;;;;;20.08;12.82;;;;;;;;;;4880639;29;20098;-65
2021/12/17 02:07:22;;;;;;;19.45;12.35;;;;;;;;;;4933647;29;20031;-65
2021/12/17 02:22:28;;;;;;;19.73;12.98;;;;;;;;;;4948350;28;20031;-66
2021/12/17 02:31:32;;;;;;;21.75;13.25;;;;;;;;;;4921207;29;20130;-67
2021/12/17 02:35:21;;;;;;;20.38;13.50;;;;;;;;;;4932725;28;20752;-66
2021/12/17 02:37:26;;;;;;;18.48;11.70;;;;;;;;;;4912962;28;20028;-66
2021/12/17 02:42:30;;;;;;;19.15;12.15;;;;;;;;;;4941778;28;20491;-64
2021/12/17 02:46:29;;;;;;;22.10;13.60;;;;;;;;;;4932237;29;20561;-66
2021/12/17 02:49:15;;;;;;;21.45;12.77;;;;;;;;;;4932122;28;21532;-66
2021/12/17 02:52:03;;;;;;;21.17;13.18;;;;;;;;;;4945229;28;20122;-65
2021/12/17 02:54:48;;;;;;;20.30;12.57;;;;;;;;;;4925031;28;20858;-65
2021/12/17 02:57:34;;;;;;;16.98;11.88;;;;;;;;;;4939363;28;20038;-65
2021/12/17 03:00:20;;;;;;;19.80;13.63;;;;;;;;;;4915750;29;20094;-65
2021/12/17 03:03:08;;;;;;;26.67;16.30;;;;;;;;;;4932341;28;20640;-67
2021/12/17 03:05:53;;;;;;;24.52;15.90;;;;;;;;;;4951727;28;20458;-68
2021/12/17 03:08:39;;;;;;;23.17;14.20;;;;;;;;;;4942907;28;20448;-67
2021/12/17 03:11:24;;;;;;;24.23;14.40;;;;;;;;;;4928122;28;20039;-66
2021/12/17 03:14:09;;;;;;;19.20;12.93;;;;;;;;;;4950112;28;20598;-67
2021/12/17 03:17:05;;;;;;;18.52;12.38;;;;;;;;;;4962854;28;20041;-63
2021/12/17 03:25:42;;;;;;;21.52;13.23;;;;;;;;;;4921014;28;20473;-66
2021/12/17 03:28:28;;;;;;;19.23;13.27;;;;;;;;;;4925729;29;20043;-66
2021/12/17 03:31:14;;;;;;;19.48;12.18;;;;;;;;;;4920752;28;20062;-66
2021/12/17 03:34:33;;;;;;;20.77;14.60;;;;;;;;;;4927869;28;20352;-65
2021/12/17 03:37:12;;;;;;;19.70;12.88;;;;;;;;;;4934596;28;20108;-64
2021/12/17 03:39:57;;;;;;;20.40;12.60;;;;;;;;;;4927505;29;20712;-66
2021/12/17 03:42:47;;;;;;;21.40;14.13;;;;;;;;;;4927753;28;20043;-69
2021/12/17 03:45:32;;;;;;;26.10;14.80;;;;;;;;;;4934722;28;20456;-68
2021/12/17 03:48:17;;;;;;;27.45;16.55;;;;;;;;;;4951448;28;20041;-66
2021/12/17 03:51:04;;;;;;;21.35;13.45;;;;;;;;;;4922506;29;20543;-66
2021/12/17 03:53:51;;;;;;;21.00;13.82;;;;;;;;;;4937300;28;20032;-68
2021/12/17 03:56:36;;;;;;;24.95;15.73;;;;;;;;;;4921302;29;20040;-66
2021/12/17 03:59:21;;;;;;;21.50;14.93;;;;;;;;;;4880169;29;20048;-65
2021/12/17 04:02:06;;;;;;;26.02;14.15;;;;;;;;;;4915532;29;20593;-66
2021/12/17 04:04:52;;;;;;;22.63;16.77;;;;;;;;;;4886675;29;20040;-68
2021/12/17 04:07:37;;;;;;;24.55;16.05;;;;;;;;;;4923018;28;20040;-66
2021/12/17 04:10:24;;;;;;;99.53;72.22;;;;;;;;;;4929989;28;20042;-67
2021/12/17 04:16:09;;;;;;;23.00;15.18;;;;;;;;;;4902983;29;20148;-69
2021/12/17 04:18:55;;;;;;;19.23;13.07;;;;;;;;;;4874707;29;20032;-68
2021/12/17 04:21:42;;;;;;;23.20;15.15;;;;;;;;;;4913429;29;20027;-68
2021/12/17 04:24:27;;;;;;;23.10;15.30;;;;;;;;;;4925549;29;20039;-71
2021/12/17 04:27:12;;;;;;;23.52;15.60;;;;;;;;;;4932134;28;20179;-69
2021/12/17 04:29:58;;;;;;;23.90;16.17;;;;;;;;;;4935319;28;20202;-71
2021/12/17 04:32:43;;;;;;;21.20;14.40;;;;;;;;;;4961943;28;20022;-68
2021/12/17 04:35:28;;;;;;;24.17;15.52;;;;;;;;;;4970323;28;20038;-67
2021/12/17 04:38:16;;;;;;;20.45;14.00;;;;;;;;;;4920976;28;20061;-67
2021/12/17 04:41:36;;;;;;;22.83;16.13;;;;;;;;;;4938770;28;20426;-66
2021/12/17 04:44:13;;;;;;;22.20;14.50;;;;;;;;;;4948238;28;20039;-64
2021/12/17 04:57:17;;;;;;;23.60;13.68;;;;;;;;;;4929187;28;20035;-68
2021/12/17 04:59:19;;;;;;;25.23;15.77;;;;;;;;;;4915212;29;20474;-63
2021/12/17 05:02:04;;;;;;;24.77;16.00;;;;;;;;;;4958586;28;20054;-64
2021/12/17 05:04:49;;;;;;;24.80;16.13;;;;;;;;;;4968395;28;20469;-65
2021/12/17 05:07:36;;;;;;;22.60;16.27;;;;;;;;;;4927020;28;20034;-64
2021/12/17 05:19:39;;;;;;;21.55;14.40;;;;;;;;;;4914333;28;20491;-65
2021/12/17 05:22:26;;;;;;;21.60;14.43;;;;;;;;;;4921321;28;20020;-65
2021/12/17 05:25:11;;;;;;;22.73;14.15;;;;;;;;;;4950773;28;20070;-66
2021/12/17 05:28:02;;;;;;;23.70;15.55;;;;;;;;;;4926638;28;20058;-64
2021/12/17 05:30:48;;;;;;;25.10;16.73;;;;;;;;;;4966344;28;20652;-64
2021/12/17 05:33:33;;;;;;;22.35;15.55;;;;;;;;;;4966453;28;20045;-66
2021/12/17 05:36:20;;;;;;;23.17;15.13;;;;;;;;;;4940821;28;20174;-63
2021/12/17 05:39:06;;;;;;;22.40;14.90;;;;;;;;;;4950377;28;20027;-65
2021/12/17 05:41:52;;;;;;;25.38;15.13;;;;;;;;;;4969108;28;20137;-64
2021/12/17 05:44:37;;;;;;;22.05;14.75;;;;;;;;;;4978185;28;20105;-66
2021/12/17 05:47:23;;;;;;;21.85;14.70;;;;;;;;;;4959388;28;20031;-66
2021/12/17 05:50:08;;;;;;;22.33;14.75;;;;;;;;;;4985247;28;20037;-65
2021/12/17 05:52:53;;;;;;;24.50;13.90;;;;;;;;;;4956970;28;20181;-68
2021/12/17 05:55:38;;;;;;;24.92;15.38;;;;;;;;;;4965834;28;20363;-65
2021/12/17 05:58:24;;;;;;;25.55;15.30;;;;;;;;;;4948615;28;20051;-67
2021/12/17 06:01:10;;;;;;;23.50;16.27;;;;;;;;;;4966824;28;20031;-68
2021/12/17 06:03:55;;;;;;;24.50;15.15;;;;;;;;;;4969193;28;20114;-67
2021/12/17 06:06:46;;;;;;;23.02;15.15;;;;;;;;;;4983231;28;20031;-66
2021/12/17 06:09:31;;;;;;;23.50;14.82;;;;;;;;;;4982263;28;20026;-67
2021/12/17 06:12:17;;;;;;;21.60;14.93;;;;;;;;;;4953438;28;20144;-68
2021/12/17 06:15:06;;;;;;;21.42;15.20;;;;;;;;;;4954407;28;20051;-68
2021/12/17 06:17:52;;;;;;;24.27;16.25;;;;;;;;;;4959586;28;20034;-65
2021/12/17 06:20:37;;;;;;;19.85;14.05;;;;;;;;;;4947710;28;20050;-66
2021/12/17 06:23:23;;;;;;;21.98;13.75;;;;;;;;;;4947341;28;20058;-67
2021/12/17 06:26:08;;;;;;;22.13;13.73;;;;;;;;;;4947830;28;20541;-67
2021/12/17 06:28:53;;;;;;;22.55;13.30;;;;;;;;;;4933675;28;20062;-70
2021/12/17 06:31:38;;;;;;;18.60;13.13;;;;;;;;;;4941541;28;20066;-67
2021/12/17 06:34:24;;;;;;;19.15;12.88;;;;;;;;;;4935891;28;21294;-69
2021/12/17 06:37:09;;;;;;;17.67;12.02;;;;;;;;;;4919012;28;20051;-67
2021/12/17 06:39:55;;;;;;;69.43;46.53;;;;;;;;;;4932181;29;20078;-68
2021/12/17 06:42:40;;;;;;;28.88;18.65;;;;;;;;;;4927085;28;20445;-73
2021/12/17 06:45:43;;;;;;;23.70;14.85;;;;;;;;;;4937045;28;20487;-71
2021/12/17 06:48:31;;;;;;;22.40;13.60;;;;;;;;;;4948172;28;20470;-70
2021/12/17 07:06:42;;;;;;;18.40;11.00;;;;;;;;;;4926727;28;20214;-67
2021/12/17 07:18:56;;;;;;;17.63;12.77;;;;;;;;;;4916001;28;20209;-74
2021/12/17 07:22:05;;;;;;;18.08;12.68;;;;;;;;;;4939143;28;20046;-66
2021/12/17 07:32:17;;;;;;;17.08;11.00;;;;;;;;;;4915488;28;20838;-67
2021/12/17 07:33:59;;;;;;;18.15;11.60;;;;;;;;;;4888204;29;20055;-66
2021/12/17 07:38:35;;;;;;;21.30;12.18;;;;;;;;;;4931568;28;20808;-61
2021/12/17 07:39:49;;;;;;;16.63;11.30;;;;;;;;;;4944277;28;20509;-67
2021/12/17 07:42:35;;;;;;;16.35;11.43;;;;;;;;;;4940298;28;20079;-69
2021/12/17 07:45:20;;;;;;;18.63;11.50;;;;;;;;;;4940219;28;20050;-67
2021/12/17 07:48:06;;;;;;;17.88;10.88;;;;;;;;;;4940473;28;20232;-67
2021/12/17 07:50:51;;;;;;;14.15;10.00;;;;;;;;;;4935905;28;20491;-69
2021/12/17 07:53:37;;;;;;;19.77;11.60;;;;;;;;;;4932952;28;20066;-66
2021/12/17 07:56:24;;;;;;;15.88;10.68;;;;;;;;;;4949741;28;20027;-62
2021/12/17 07:59:11;;;;;;;14.00;9.88;;;;;;;;;;4915116;28;20121;-61
2021/12/17 08:01:56;;;;;;;20.67;9.45;;;;;;;;;;4917203;29;20406;-63
2021/12/17 08:04:41;;;;;;;13.75;10.00;;;;;;;;;;4929529;28;20043;-62
2021/12/17 08:07:26;;;;;;;14.10;9.70;;;;;;;;;;4908065;28;20036;-62
2021/12/17 08:10:12;;;;;;;14.57;10.60;;;;;;;;;;4911577;29;20044;-62
2021/12/17 08:12:57;;;;;;;16.02;9.95;;;;;;;;;;4927329;29;20042;-65
2021/12/17 08:15:51;;;;;;;14.13;9.57;;;;;;;;;;4908226;29;20466;-64
2021/12/17 08:27:47;;;;;;;14.63;8.85;;;;;;;;;;4968015;28;20474;-65
2021/12/17 08:30:40;;;;;;;12.50;9.02;;;;;;;;;;4976849;28;20034;-63
2021/12/17 08:33:25;;;;;;;14.43;8.88;;;;;;;;;;4971667;28;20062;-67
2021/12/17 08:36:11;;;;;;;12.93;8.07;;;;;;;;;;4952499;28;20077;-68
2021/12/17 08:38:56;;;;;;;16.23;7.63;;;;;;;;;;4959122;28;20524;-67
2021/12/17 08:41:41;;;;;;;12.10;8.63;;;;;;;;;;4969962;28;20038;-67
2021/12/17 08:44:27;;;;;;;11.43;7.05;;;;;;;;;;4985870;28;20069;-69
2021/12/17 08:47:12;;;;;;;15.57;8.65;;;;;;;;;;4972974;28;20057;-67
2021/12/17 08:50:04;;;;;;;11.88;7.82;;;;;;;;;;4968595;28;20042;-66
2021/12/17 08:52:49;;;;;;;9.57;6.85;;;;;;;;;;4968469;28;20266;-65
2021/12/17 08:55:34;;;;;;;10.07;6.97;;;;;;;;;;4967787;28;20038;-64
2021/12/17 08:58:20;;;;;;;10.45;7.30;;;;;;;;;;4943964;28;20094;-65
2021/12/17 09:01:05;;;;;;;12.93;7.10;;;;;;;;;;4930993;28;20403;-68
2021/12/17 09:03:50;;;;;;;11.57;7.38;;;;;;;;;;4966930;28;20109;-67
2021/12/17 09:06:36;;;;;;;9.25;6.20;;;;;;;;;;4958997;28;20038;-74
2021/12/17 09:09:22;;;;;;;10.93;6.75;;;;;;;;;;4944591;28;20493;-72
2021/12/17 09:12:08;;;;;;;11.90;7.97;;;;;;;;;;4951246;28;20449;-68
2021/12/17 09:14:53;;;;;;;13.23;8.13;;;;;;;;;;4965726;28;20039;-68
2021/12/17 09:17:38;;;;;;;11.00;8.15;;;;;;;;;;4978939;28;20118;-69
2021/12/17 09:20:24;;;;;;;12.45;7.95;;;;;;;;;;4954399;28;20042;-68
2021/12/17 09:23:09;;;;;;;12.57;8.18;;;;;;;;;;4953333;28;20096;-71
2021/12/17 09:25:54;;;;;;;14.43;8.27;;;;;;;;;;4954765;28;20061;-74
2021/12/17 09:28:40;;;;;;;13.07;7.72;;;;;;;;;;4931394;28;20047;-68
2021/12/17 09:31:25;;;;;;;10.98;7.78;;;;;;;;;;4934214;28;20197;-68
2021/12/17 09:34:10;;;;;;;13.80;8.35;;;;;;;;;;4956197;28;20035;-70
2021/12/17 09:36:55;;;;;;;13.65;7.68;;;;;;;;;;4957536;28;20030;-68
2021/12/17 09:39:41;;;;;;;15.63;8.60;;;;;;;;;;4925539;28;20107;-68
2021/12/17 09:42:27;;;;;;;11.10;6.63;;;;;;;;;;4923791;28;20135;-67
2021/12/17 09:45:13;;;;;;;13.30;8.07;;;;;;;;;;4942600;28;20416;-64
2021/12/17 09:48:00;;;;;;;11.45;7.97;;;;;;;;;;4950879;28;20027;-74
2021/12/17 09:50:45;;;;;;;11.73;7.65;;;;;;;;;;4936240;28;20039;-72
2021/12/17 09:53:31;;;;;;;11.55;8.25;;;;;;;;;;4932446;28;20444;-71
2021/12/17 09:56:17;;;;;;;10.75;7.07;;;;;;;;;;4933315;29;20028;-71
2021/12/17 09:59:02;;;;;;;11.13;7.60;;;;;;;;;;4953938;28;20034;-71
2021/12/17 10:01:48;;;;;;;10.77;7.35;;;;;;;;;;4940291;28;20035;-68
2021/12/17 10:04:33;;;;;;;13.88;7.78;;;;;;;;;;4916770;29;20135;-68
2021/12/17 10:07:20;;;;;;;10.70;7.63;;;;;;;;;;4873284;29;20043;-77
2021/12/17 10:10:06;;;;;;;11.65;7.75;;;;;;;;;;4905149;29;20027;-72
2021/12/17 10:13:04;;;;;;;11.13;8.27;;;;;;;;;;4904073;28;20047;-75
2021/12/17 10:15:51;;;;;;;12.38;9.48;;;;;;;;;;4941588;28;20058;-72
2021/12/17 10:18:40;;;;;;;11.88;8.48;;;;;;;;;;4905160;28;20031;-74
2021/12/17 10:21:26;;;;;;;12.38;9.20;;;;;;;;;;4930833;28;20031;-69
2021/12/17 10:24:20;;;;;;;13.73;9.40;;;;;;;;;;4931302;28;20274;-70
2021/12/17 10:27:16;;;;;;;13.38;9.77;;;;;;;;;;4926119;28;20043;-68
2021/12/17 10:30:08;;;;;;;12.43;9.30;;;;;;;;;;4925623;28;20042;-70
2021/12/17 10:32:55;;;;;;;13.68;8.70;;;;;;;;;;4929918;28;20054;-69
2021/12/17 10:35:45;;;;;;;13.32;8.85;;;;;;;;;;4900642;28;20108;-69
2021/12/17 10:38:30;;;;;;;12.70;9.05;;;;;;;;;;4906063;28;20364;-73
2021/12/17 10:41:15;;;;;;;13.68;8.38;;;;;;;;;;4930243;29;20078;-71
2021/12/17 10:44:07;;;;;;;13.55;9.68;;;;;;;;;;4905475;29;20248;-72
2021/12/17 10:47:18;;;;;;;17.25;9.40;;;;;;;;;;4909055;29;20090;-71
2021/12/17 10:50:05;;;;;;;11.45;7.78;;;;;;;;;;4913290;29;20027;-73
2021/12/17 10:52:57;;;;;;;13.35;8.48;;;;;;;;;;4908706;28;20066;-72
2021/12/17 10:55:46;;;;;;;12.45;7.90;;;;;;;;;;4911135;28;20094;-71
2021/12/17 10:58:31;;;;;;;11.30;7.90;;;;;;;;;;4903273;29;20514;-66
2021/12/17 11:01:16;;;;;;;12.57;9.05;;;;;;;;;;4942131;28;20571;-69
2021/12/17 11:04:05;;;;;;;12.93;8.77;;;;;;;;;;4913742;29;20034;-69
2021/12/17 11:06:57;;;;;;;12.98;8.23;;;;;;;;;;4908348;29;20071;-69
2021/12/17 11:09:50;;;;;;;10.68;7.78;;;;;;;;;;4921538;28;20050;-69
2021/12/17 11:12:38;;;;;;;15.43;9.65;;;;;;;;;;4886542;29;20024;-70
2021/12/17 11:15:27;;;;;;;13.35;9.85;;;;;;;;;;4938250;28;20378;-73
2021/12/17 11:18:13;;;;;;;13.10;9.93;;;;;;;;;;4921267;29;20028;-73
2021/12/17 11:20:58;;;;;;;13.45;9.50;;;;;;;;;;4922468;29;20430;-79
2021/12/17 11:23:45;;;;;;;12.73;9.23;;;;;;;;;;4947890;28;20052;-76
2021/12/17 11:26:30;;;;;;;13.38;9.05;;;;;;;;;;4929982;29;20110;-74
2021/12/17 11:29:16;;;;;;;15.70;9.65;;;;;;;;;;4922948;29;20031;-77
2021/12/17 11:32:04;;;;;;;14.18;9.80;;;;;;;;;;4905638;28;20035;-75
2021/12/17 11:34:49;;;;;;;13.63;9.60;;;;;;;;;;4884556;29;20366;-66
2021/12/17 11:37:34;;;;;;;15.63;10.27;;;;;;;;;;4898903;29;20031;-73
2021/12/17 11:40:25;;;;;;;14.23;9.43;;;;;;;;;;4904294;29;20027;-68
2021/12/17 11:43:34;;;;;;;14.27;10.07;;;;;;;;;;4900448;29;20047;-65
2021/12/17 11:46:31;;;;;;;13.65;9.40;;;;;;;;;;4932231;28;20038;-67
2021/12/17 11:49:17;;;;;;;15.07;9.25;;;;;;;;;;4928279;28;20050;-67
2021/12/17 11:52:03;;;;;;;14.23;9.50;;;;;;;;;;4932599;28;20443;-70
2021/12/17 11:54:48;;;;;;;18.92;13.45;;;;;;;;;;4941656;28;20133;-73
2021/12/17 11:57:40;;;;;;;13.23;9.25;;;;;;;;;;4944969;28;20032;-69
2021/12/17 12:00:30;;;;;;;14.77;9.85;;;;;;;;;;4962911;28;20490;-72
2021/12/17 12:03:19;;;;;;;12.82;7.82;;;;;;;;;;4930266;28;20039;-69
2021/12/17 12:06:04;;;;;;;14.15;8.85;;;;;;;;;;4913643;29;20044;-70
2021/12/17 12:08:57;;;;;;;12.00;8.55;;;;;;;;;;4913344;28;20046;-71
2021/12/17 12:11:42;;;;;;;13.07;8.73;;;;;;;;;;4906057;29;20472;-68
2021/12/17 12:14:31;;;;;;;14.02;9.18;;;;;;;;;;4928470;28;20380;-69
2021/12/17 12:17:35;;;;;;;14.98;9.50;;;;;;;;;;4921691;29;20112;-69
2021/12/17 12:20:59;;;;;;;13.38;8.88;;;;;;;;;;4906870;29;20128;-70
2021/12/17 12:23:49;;;;;;;12.73;8.82;;;;;;;;;;4866267;29;20033;-69
2021/12/17 12:26:55;;;;;;;15.95;8.43;;;;;;;;;;4871749;29;20115;-70
2021/12/17 12:29:40;;;;;;;13.13;8.85;;;;;;;;;;4814857;29;20668;-71
2021/12/17 12:32:25;;;;;;;13.55;9.00;;;;;;;;;;4830278;29;20045;-67
2021/12/17 12:35:11;;;;;;;12.25;8.50;;;;;;;;;;4854777;29;20051;-72
2021/12/17 12:38:14;;;;;;;15.00;9.20;;;;;;;;;;4875076;29;20085;-69
2021/12/17 12:41:07;;;;;;;13.82;7.88;;;;;;;;;;4853344;29;20622;-68
2021/12/17 12:43:52;;;;;;;12.00;8.50;;;;;;;;;;4862570;29;20049;-71
2021/12/17 12:46:49;;;;;;;13.85;8.13;;;;;;;;;;4846233;29;20087;-69
2021/12/17 12:49:49;;;;;;;12.85;8.43;;;;;;;;;;4865352;29;20079;-68
2021/12/17 12:52:43;;;;;;;14.18;7.80;;;;;;;;;;4843421;29;20051;-69
2021/12/17 12:55:36;;;;;;;13.77;8.15;;;;;;;;;;4906243;29;20039;-75
2021/12/17 12:58:26;;;;;;;13.05;8.55;;;;;;;;;;4888142;29;20051;-71
2021/12/17 13:01:13;;;;;;;13.30;8.88;;;;;;;;;;4906362;29;20064;-70
2021/12/17 13:04:05;;;;;;;12.93;6.68;;;;;;;;;;4868905;29;20037;-71
2021/12/17 13:06:51;;;;;;;10.43;7.55;;;;;;;;;;4870452;29;20103;-73
2021/12/17 13:09:43;;;;;;;11.00;7.90;;;;;;;;;;4859202;29;20032;-68
2021/12/17 13:12:28;;;;;;;12.88;7.85;;;;;;;;;;4869058;29;20051;-68
2021/12/17 13:15:31;;;;;;;16.63;8.07;;;;;;;;;;4864604;29;20512;-68
2021/12/17 13:24:25;;;;;;;12.32;8.10;;;;;;;;;;4929173;28;20039;-70
2021/12/17 13:27:11;;;;;;;13.13;8.35;;;;;;;;;;4898054;29;20107;-78
2021/12/17 13:29:57;;;;;;;13.25;8.15;;;;;;;;;;4915202;28;20106;-78
2021/12/17 13:32:43;;;;;;;13.75;8.82;;;;;;;;;;4892708;29;20133;-71
2021/12/17 13:35:33;;;;;;;11.50;7.65;;;;;;;;;;4882013;29;20559;-74
2021/12/17 13:38:18;;;;;;;11.18;8.27;;;;;;;;;;4901766;28;20066;-74
2021/12/17 13:41:09;;;;;;;13.60;7.85;;;;;;;;;;4899903;29;20474;-75
2021/12/17 13:43:55;;;;;;;13.32;8.85;;;;;;;;;;4915290;28;20129;-67
2021/12/17 13:46:40;;;;;;;14.15;8.60;;;;;;;;;;4936629;28;20505;-68
2021/12/17 13:49:25;;;;;;;13.40;8.90;;;;;;;;;;4926615;28;20122;-69
2021/12/17 13:52:11;;;;;;;14.27;8.82;;;;;;;;;;4927034;29;20382;-67
2021/12/17 13:54:57;;;;;;;12.07;8.43;;;;;;;;;;4894077;29;20534;-70
2021/12/17 13:57:43;;;;;;;12.52;7.90;;;;;;;;;;4915909;29;20035;-68
2021/12/17 14:00:34;;;;;;;13.27;8.65;;;;;;;;;;4939296;28;20541;-72
2021/12/17 14:03:22;;;;;;;11.02;8.15;;;;;;;;;;4932641;28;20541;-70
2021/12/17 14:06:18;;;;;;;12.00;8.20;;;;;;;;;;4925198;29;20038;-68
2021/12/17 14:09:03;;;;;;;14.05;8.65;;;;;;;;;;4925677;28;20027;-69
2021/12/17 14:11:49;;;;;;;11.43;8.68;;;;;;;;;;4923850;29;20063;-68
2021/12/17 14:14:35;;;;;;;12.82;8.93;;;;;;;;;;4906359;29;20467;-68
2021/12/17 14:17:20;;;;;;;15.30;8.93;;;;;;;;;;4888775;28;20042;-67
2021/12/17 14:20:09;;;;;;;13.00;8.43;;;;;;;;;;4914968;29;20032;-66
2021/12/17 14:23:03;;;;;;;14.65;9.52;;;;;;;;;;4892600;29;20111;-68
2021/12/17 14:25:50;;;;;;;14.57;8.98;;;;;;;;;;4902020;28;20199;-70
2021/12/17 14:28:37;;;;;;;12.20;8.18;;;;;;;;;;4952331;28;20038;-71
2021/12/17 14:31:24;;;;;;;16.83;9.90;;;;;;;;;;4951275;28;20031;-67
2021/12/17 14:34:15;;;;;;;15.02;8.82;;;;;;;;;;4911579;29;20114;-70
2021/12/17 14:37:01;;;;;;;13.23;9.20;;;;;;;;;;4900206;29;20687;-70
2021/12/17 14:39:48;;;;;;;14.15;9.38;;;;;;;;;;4930295;28;20031;-70
2021/12/17 14:42:36;;;;;;;11.95;8.57;;;;;;;;;;4925116;28;20059;-70
2021/12/17 14:45:27;;;;;;;13.85;9.13;;;;;;;;;;4923063;28;20040;-70
2021/12/17 14:48:17;;;;;;;16.67;10.65;;;;;;;;;;4915727;28;20087;-70
2021/12/17 15:03:01;;;;;;;15.25;10.73;;;;;;;;;;4861026;29;20560;-66
2021/12/17 15:05:46;;;;;;;17.88;11.32;;;;;;;;;;4864213;29;20049;-64
2021/12/17 15:08:33;;;;;;;15.07;10.75;;;;;;;;;;4922831;29;20039;-62
2021/12/17 15:11:28;;;;;;;15.07;10.02;;;;;;;;;;4905547;29;20043;-65
2021/12/17 15:14:13;;;;;;;17.48;11.15;;;;;;;;;;4904592;29;20798;-71
2021/12/17 15:16:58;;;;;;;15.07;10.68;;;;;;;;;;4912635;29;20043;-70
2021/12/17 15:19:43;;;;;;;15.15;11.23;;;;;;;;;;4882504;29;20046;-72
2021/12/17 15:22:29;;;;;;;14.57;11.10;;;;;;;;;;4895464;29;20431;-70
2021/12/17 15:25:14;;;;;;;16.67;12.10;;;;;;;;;;4937925;28;20050;-72
2021/12/17 15:27:59;;;;;;;28.25;21.75;;;;;;;;;;4937627;28;20036;-71
2021/12/17 15:30:46;;;;;;;15.70;10.60;;;;;;;;;;4921332;29;20103;-70
2021/12/17 15:33:33;;;;;;;14.90;11.15;;;;;;;;;;4888383;29;20029;-63
2021/12/17 15:36:18;;;;;;;17.58;11.32;;;;;;;;;;4905717;29;20047;-69
2021/12/17 15:39:04;;;;;;;14.52;10.00;;;;;;;;;;4923413;29;20059;-71
2021/12/17 15:41:49;;;;;;;15.77;11.13;;;;;;;;;;4901650;29;20066;-69
2021/12/17 15:44:34;;;;;;;15.95;11.82;;;;;;;;;;4910761;29;20059;-71
2021/12/17 15:47:20;;;;;;;15.32;10.73;;;;;;;;;;4921590;29;20031;-69
2021/12/17 15:50:06;;;;;;;15.80;11.38;;;;;;;;;;4935708;28;20038;-68
2021/12/17 15:52:51;;;;;;;16.42;11.35;;;;;;;;;;4934254;28;20419;-70
2021/12/17 15:55:39;;;;;;;16.90;11.02;;;;;;;;;;4892247;29;20096;-68
2021/12/17 15:58:24;;;;;;;15.18;11.50;;;;;;;;;;4867509;29;20028;-67
2021/12/17 16:01:10;;;;;;;16.17;12.40;;;;;;;;;;4885432;29;20666;-68
2021/12/17 16:03:55;;;;;;;16.00;11.02;;;;;;;;;;4891074;29;20095;-67
2021/12/17 16:06:41;;;;;;;20.95;15.65;;;;;;;;;;4882537;29;20045;-69
2021/12/17 16:21:27;;;;;;;14.45;10.27;;;;;;;;;;4871986;29;20040;-72
2021/12/17 16:24:13;;;;;;;17.83;11.30;;;;;;;;;;4842464;29;20046;-71
2021/12/17 16:26:58;;;;;;;14.15;10.70;;;;;;;;;;4851384;29;20053;-68
2021/12/17 16:29:43;;;;;;;15.13;10.63;;;;;;;;;;4846119;29;20033;-64
2021/12/17 16:32:29;;;;;;;16.25;11.90;;;;;;;;;;4871446;29;20036;-63
2021/12/17 16:35:14;;;;;;;23.33;12.00;;;;;;;;;;4870748;29;20528;-64
2021/12/17 16:37:59;;;;;;;15.90;10.77;;;;;;;;;;4873143;29;20706;-61
2021/12/17 16:40:44;;;;;;;14.02;10.85;;;;;;;;;;4877676;29;20076;-66
2021/12/17 16:43:30;;;;;;;14.90;10.70;;;;;;;;;;4913131;29;20091;-66
2021/12/17 16:49:05;;;;;;;16.35;11.70;;;;;;;;;;4907156;29;20071;-63
2021/12/17 16:51:50;;;;;;;22.83;16.50;;;;;;;;;;4848290;29;20436;-67
2021/12/17 16:54:36;;;;;;;24.00;18.17;;;;;;;;;;4906431;29;20028;-67
2021/12/17 16:57:21;;;;;;;17.00;12.35;;;;;;;;;;4896074;29;20094;-69
2021/12/17 17:00:07;;;;;;;17.17;12.57;;;;;;;;;;4900595;29;20032;-67
2021/12/17 17:02:53;;;;;;;17.33;12.18;;;;;;;;;;4895643;29;20061;-66
2021/12/17 17:05:38;;;;;;;18.58;12.13;;;;;;;;;;4875557;29;20040;-71
2021/12/17 17:08:24;;;;;;;16.73;12.00;;;;;;;;;;4878501;29;20036;-66
2021/12/17 17:11:13;;;;;;;15.30;11.43;;;;;;;;;;4869495;29;20052;-66
2021/12/17 17:13:58;;;;;;;16.77;12.17;;;;;;;;;;4858741;29;20049;-67
2021/12/17 17:16:43;;;;;;;18.00;12.70;;;;;;;;;;4917112;29;20075;-67
2021/12/17 17:19:29;;;;;;;17.63;13.48;;;;;;;;;;4915173;29;20106;-68
2021/12/17 17:22:15;;;;;;;15.57;12.70;;;;;;;;;;4936084;28;20035;-66
2021/12/17 17:25:00;;;;;;;22.02;15.05;;;;;;;;;;4954723;28;20501;-66
2021/12/17 17:27:46;;;;;;;20.95;16.25;;;;;;;;;;4915413;29;20085;-70
2021/12/17 17:30:32;;;;;;;17.58;14.18;;;;;;;;;;4930789;28;20487;-68
2021/12/17 17:33:18;;;;;;;18.63;13.23;;;;;;;;;;4899509;29;20127;-67
2021/12/17 17:36:03;;;;;;;16.17;12.77;;;;;;;;;;4895485;29;20214;-68
2021/12/17 17:38:49;;;;;;;17.58;12.35;;;;;;;;;;4940436;28;20145;-67
2021/12/17 17:41:34;;;;;;;20.40;14.20;;;;;;;;;;4933038;29;20407;-64
2021/12/17 17:44:19;;;;;;;19.70;13.07;;;;;;;;;;4928830;29;20060;-63
2021/12/17 17:47:05;;;;;;;17.10;13.13;;;;;;;;;;4903095;29;20063;-62
2021/12/17 17:49:50;;;;;;;17.42;13.50;;;;;;;;;;4894201;29;20520;-61
2021/12/17 17:52:35;;;;;;;18.40;13.50;;;;;;;;;;4903765;29;20107;-62
2021/12/17 17:55:21;;;;;;;17.23;13.70;;;;;;;;;;4870284;29;20036;-60
2021/12/17 17:58:06;;;;;;;16.02;12.30;;;;;;;;;;4894080;29;20121;-61
2021/12/17 18:00:51;;;;;;;18.88;14.02;;;;;;;;;;4942434;29;20074;-63
2021/12/17 18:03:36;;;;;;;36.22;24.67;;;;;;;;;;4869074;29;20497;-65
2021/12/17 18:06:22;;;;;;;20.75;14.25;;;;;;;;;;4861982;29;20031;-62
2021/12/17 18:09:07;;;;;;;18.65;14.20;;;;;;;;;;4866686;29;20525;-63
2021/12/17 18:11:52;;;;;;;20.15;14.95;;;;;;;;;;4835598;29;20042;-64
2021/12/17 18:14:38;;;;;;;19.48;14.13;;;;;;;;;;4911409;29;20028;-62
2021/12/17 18:17:24;;;;;;;24.45;13.80;;;;;;;;;;4910264;29;20028;-63
2021/12/17 18:20:09;;;;;;;18.23;13.10;;;;;;;;;;4880003;29;20127;-67
2021/12/17 18:22:55;;;;;;;18.50;13.38;;;;;;;;;;4883863;29;20032;-61
2021/12/17 18:25:41;;;;;;;18.40;14.13;;;;;;;;;;4903231;29;20044;-66
2021/12/17 18:28:26;;;;;;;19.88;14.73;;;;;;;;;;4923160;29;20677;-65
2021/12/17 18:31:12;;;;;;;23.13;15.02;;;;;;;;;;4916645;28;20039;-66
2021/12/17 18:33:57;;;;;;;20.48;15.13;;;;;;;;;;4940649;28;20059;-64
2021/12/17 18:36:42;;;;;;;28.80;21.13;;;;;;;;;;4906014;29;20084;-66
2021/12/17 18:39:28;;;;;;;28.27;18.50;;;;;;;;;;4919859;28;20035;-64
2021/12/17 18:45:17;;;;;;;22.60;15.38;;;;;;;;;;4918865;29;20048;-63
2021/12/17 18:48:02;;;;;;;21.67;15.50;;;;;;;;;;4893575;29;20046;-63
2021/12/17 18:50:48;;;;;;;20.00;14.80;;;;;;;;;;4892998;29;20191;-64
2021/12/17 18:53:33;;;;;;;19.52;15.45;;;;;;;;;;4837348;29;20022;-63
2021/12/17 18:56:25;;;;;;;20.05;14.52;;;;;;;;;;4839369;29;20041;-64
2021/12/17 18:59:11;;;;;;;20.30;14.85;;;;;;;;;;4826488;29;20041;-66
2021/12/17 19:01:56;;;;;;;22.92;15.00;;;;;;;;;;4874870;29;20083;-64
2021/12/17 19:04:41;;;;;;;20.73;15.02;;;;;;;;;;4916747;29;20029;-66
2021/12/17 19:07:26;;;;;;;17.38;14.02;;;;;;;;;;4900943;29;20420;-62
2021/12/17 19:10:12;;;;;;;17.35;13.38;;;;;;;;;;4897001;29;20039;-63
2021/12/17 19:12:57;;;;;;;20.67;15.60;;;;;;;;;;4905882;29;20043;-64
2021/12/17 19:15:43;;;;;;;23.98;15.85;;;;;;;;;;4919749;28;20480;-65
2021/12/17 19:18:36;;;;;;;23.05;15.45;;;;;;;;;;4869975;28;20040;-64
2021/12/17 19:21:39;;;;;;;21.35;15.85;;;;;;;;;;4921774;28;20039;-64
2021/12/17 19:24:24;;;;;;;23.30;15.02;;;;;;;;;;4902415;29;20042;-64
2021/12/17 19:27:10;;;;;;;19.10;14.52;;;;;;;;;;4890256;28;20047;-63